sensor_id;sensor_type;location;lat;lon;timestamp;pressure;altitude;pressure_sealevel;temperature;humidity
47082;BME280;33066;49.296;14.470;2023-04-21T00:01:27;96830.95;;;14.15;38.44
47082;BME280;33066;49.296;14.470;2023-04-21T00:03:53;96831.67;;;14.57;38.48
47082;BME280;33066;49.296;14.470;2023-04-21T00:06:18;96830.46;;;14.61;38.51
47082;BME280;33066;49.296;14.470;2023-04-21T00:08:44;96824.32;;;14.60;38.37
47082;BME280;33066;49.296;14.470;2023-04-21T00:11:09;96824.71;;;14.55;38.40
47082;BME280;33066;49.296;14.470;2023-04-21T00:13:35;96819.47;;;14.49;38.44
47082;BME280;33066;49.296;14.470;2023-04-21T00:16:00;96815.99;;;14.52;38.46
47082;BME280;33066;49.296;14.470;2023-04-21T00:18:26;96815.14;;;14.55;38.43
47082;BME280;33066;49.296;14.470;2023-04-21T00:20:51;96812.46;;;14.52;38.50
47082;BME280;33066;49.296;14.470;2023-04-21T00:23:17;96812.86;;;14.33;38.51
47082;BME280;33066;49.296;14.470;2023-04-21T00:25:44;96809.72;;;14.54;38.55
47082;BME280;33066;49.296;14.470;2023-04-21T00:28:08;96806.73;;;14.31;38.52
47082;BME280;33066;49.296;14.470;2023-04-21T00:30:34;96804.22;;;14.83;38.45
47082;BME280;33066;49.296;14.470;2023-04-21T00:32:59;96801.11;;;14.51;38.49
47082;BME280;33066;49.296;14.470;2023-04-21T00:35:24;96800.98;;;14.36;38.64
47082;BME280;33066;49.296;14.470;2023-04-21T00:37:50;96804.72;;;14.18;38.85
47082;BME280;33066;49.296;14.470;2023-04-21T00:40:15;96804.50;;;14.18;38.87
47082;BME280;33066;49.296;14.470;2023-04-21T00:42:40;96804.61;;;14.15;38.91
47082;BME280;33066;49.296;14.470;2023-04-21T00:45:06;96806.52;;;14.33;38.47
47082;BME280;33066;49.296;14.470;2023-04-21T00:47:31;96808.08;;;14.10;38.45
47082;BME280;33066;49.296;14.470;2023-04-21T00:49:58;96807.70;;;14.37;38.30
47082;BME280;33066;49.296;14.470;2023-04-21T00:52:22;96806.73;;;14.03;38.46
47082;BME280;33066;49.296;14.470;2023-04-21T00:54:48;96807.13;;;13.98;38.56
47082;BME280;33066;49.296;14.470;2023-04-21T00:57:13;96808.28;;;14.26;38.66
47082;BME280;33066;49.296;14.470;2023-04-21T00:59:40;96808.09;;;14.01;38.60
47082;BME280;33066;49.296;14.470;2023-04-21T01:02:04;96808.48;;;14.22;38.72
47082;BME280;33066;49.296;14.470;2023-04-21T01:04:29;96806.91;;;14.03;38.64
47082;BME280;33066;49.296;14.470;2023-04-21T01:06:54;96806.32;;;14.28;38.70
47082;BME280;33066;49.296;14.470;2023-04-21T01:09:20;96804.85;;;14.06;38.54
47082;BME280;33066;49.296;14.470;2023-04-21T01:14:10;96802.60;;;14.45;38.32
47082;BME280;33066;49.296;14.470;2023-04-21T01:16:35;96800.07;;;14.23;38.36
47082;BME280;33066;49.296;14.470;2023-04-21T01:19:01;96799.10;;;14.40;38.10
47082;BME280;33066;49.296;14.470;2023-04-21T01:21:26;96795.05;;;14.30;37.95
47082;BME280;33066;49.296;14.470;2023-04-21T01:23:52;96796.27;;;14.20;38.01
47082;BME280;33066;49.296;14.470;2023-04-21T01:26:18;96796.99;;;14.17;38.07
47082;BME280;33066;49.296;14.470;2023-04-21T01:28:42;96797.95;;;14.17;38.10
47082;BME280;33066;49.296;14.470;2023-04-21T01:31:09;96796.55;;;14.09;38.04
47082;BME280;33066;49.296;14.470;2023-04-21T01:33:34;96798.75;;;14.05;38.03
47082;BME280;33066;49.296;14.470;2023-04-21T01:35:59;96798.09;;;13.77;38.14
47082;BME280;33066;49.296;14.470;2023-04-21T01:38:25;96797.57;;;14.00;38.12
47082;BME280;33066;49.296;14.470;2023-04-21T01:40:53;96799.01;;;14.05;38.25
47082;BME280;33066;49.296;14.470;2023-04-21T01:43:19;96797.61;;;14.35;38.10
47082;BME280;33066;49.296;14.470;2023-04-21T01:45:41;96798.00;;;13.97;37.67
47082;BME280;33066;49.296;14.470;2023-04-21T01:48:06;96803.06;;;13.70;37.91
47082;BME280;33066;49.296;14.470;2023-04-21T01:50:32;96800.55;;;13.79;38.24
47082;BME280;33066;49.296;14.470;2023-04-21T01:52:57;96798.66;;;13.62;38.47
47082;BME280;33066;49.296;14.470;2023-04-21T01:55:24;96797.26;;;13.50;38.63
47082;BME280;33066;49.296;14.470;2023-04-21T01:57:49;96797.90;;;13.16;38.72
47082;BME280;33066;49.296;14.470;2023-04-21T02:00:14;96796.14;;;13.40;38.89
47082;BME280;33066;49.296;14.470;2023-04-21T02:02:39;96791.86;;;13.93;38.03
47082;BME280;33066;49.296;14.470;2023-04-21T02:05:05;96791.06;;;13.96;37.90
47082;BME280;33066;49.296;14.470;2023-04-21T02:07:31;96791.26;;;13.77;37.99
47082;BME280;33066;49.296;14.470;2023-04-21T02:09:56;96793.29;;;13.37;38.03
47082;BME280;33066;49.296;14.470;2023-04-21T02:12:22;96793.16;;;13.24;38.02
47082;BME280;33066;49.296;14.470;2023-04-21T02:14:48;96794.24;;;13.47;38.07
47082;BME280;33066;49.296;14.470;2023-04-21T02:17:13;96793.91;;;13.34;38.23
47082;BME280;33066;49.296;14.470;2023-04-21T02:19:39;96792.46;;;13.24;38.44
47082;BME280;33066;49.296;14.470;2023-04-21T02:22:04;96791.50;;;13.45;38.52
47082;BME280;33066;49.296;14.470;2023-04-21T02:24:30;96791.08;;;13.19;38.71
47082;BME280;33066;49.296;14.470;2023-04-21T02:26:55;96791.62;;;13.21;38.58
47082;BME280;33066;49.296;14.470;2023-04-21T02:29:21;96792.04;;;13.19;38.41
47082;BME280;33066;49.296;14.470;2023-04-21T02:31:46;96794.31;;;13.45;38.23
47082;BME280;33066;49.296;14.470;2023-04-21T02:34:11;96796.35;;;13.24;38.16
47082;BME280;33066;49.296;14.470;2023-04-21T02:36:36;96795.37;;;12.98;38.53
47082;BME280;33066;49.296;14.470;2023-04-21T02:39:02;96794.31;;;13.24;38.49
47082;BME280;33066;49.296;14.470;2023-04-21T02:41:28;96790.93;;;12.98;38.53
47082;BME280;33066;49.296;14.470;2023-04-21T02:43:52;96792.34;;;13.20;38.62
47082;BME280;33066;49.296;14.470;2023-04-21T02:46:18;96795.60;;;13.37;38.73
47082;BME280;33066;49.296;14.470;2023-04-21T02:48:43;96796.65;;;12.89;38.39
47082;BME280;33066;49.296;14.470;2023-04-21T02:51:11;96795.93;;;13.09;38.31
47082;BME280;33066;49.296;14.470;2023-04-21T02:53:35;96796.29;;;12.85;38.14
47082;BME280;33066;49.296;14.470;2023-04-21T02:55:59;96796.75;;;13.05;38.22
47082;BME280;33066;49.296;14.470;2023-04-21T02:58:24;96798.08;;;12.78;38.41
47082;BME280;33066;49.296;14.470;2023-04-21T03:00:51;96798.55;;;12.99;38.43
47082;BME280;33066;49.296;14.470;2023-04-21T03:03:15;96796.23;;;12.87;38.37
47082;BME280;33066;49.296;14.470;2023-04-21T03:05:40;96795.63;;;12.83;38.48
47082;BME280;33066;49.296;14.470;2023-04-21T03:08:06;96795.74;;;12.74;38.26
47082;BME280;33066;49.296;14.470;2023-04-21T03:13:00;96792.33;;;13.12;37.75
47082;BME280;33066;49.296;14.470;2023-04-21T03:15:25;96794.38;;;12.77;37.76
47082;BME280;33066;49.296;14.470;2023-04-21T03:17:50;96793.13;;;13.00;38.06
47082;BME280;33066;49.296;14.470;2023-04-21T03:20:16;96790.72;;;13.05;37.53
47082;BME280;33066;49.296;14.470;2023-04-21T03:22:42;96789.52;;;12.77;37.56
47082;BME280;33066;49.296;14.470;2023-04-21T03:25:07;96789.63;;;12.72;37.35
47082;BME280;33066;49.296;14.470;2023-04-21T03:27:33;96792.31;;;12.84;37.34
47082;BME280;33066;49.296;14.470;2023-04-21T03:29:58;96792.23;;;12.72;37.41
47082;BME280;33066;49.296;14.470;2023-04-21T03:32:24;96792.36;;;12.71;37.83
47082;BME280;33066;49.296;14.470;2023-04-21T03:34:49;96794.99;;;12.56;38.28
47082;BME280;33066;49.296;14.470;2023-04-21T03:37:15;96794.51;;;12.49;37.68
47082;BME280;33066;49.296;14.470;2023-04-21T03:39:42;96795.33;;;12.55;38.06
47082;BME280;33066;49.296;14.470;2023-04-21T03:42:08;96794.63;;;12.64;38.03
47082;BME280;33066;49.296;14.470;2023-04-21T03:44:32;96792.27;;;12.71;38.17
47082;BME280;33066;49.296;14.470;2023-04-21T03:46:59;96788.98;;;12.86;38.13
47082;BME280;33066;49.296;14.470;2023-04-21T03:49:23;96786.95;;;12.82;37.85
47082;BME280;33066;49.296;14.470;2023-04-21T03:51:48;96786.87;;;13.02;37.75
47082;BME280;33066;49.296;14.470;2023-04-21T03:54:13;96787.97;;;13.20;37.89
47082;BME280;33066;49.296;14.470;2023-04-21T03:56:39;96786.24;;;12.68;37.97
47082;BME280;33066;49.296;14.470;2023-04-21T03:59:04;96786.00;;;12.69;37.77
47082;BME280;33066;49.296;14.470;2023-04-21T04:01:29;96786.12;;;13.17;37.60
47082;BME280;33066;49.296;14.470;2023-04-21T04:03:55;96787.85;;;12.92;37.85
47082;BME280;33066;49.296;14.470;2023-04-21T04:06:21;96787.67;;;13.01;37.29
47082;BME280;33066;49.296;14.470;2023-04-21T04:08:46;96787.20;;;12.92;37.53
47082;BME280;33066;49.296;14.470;2023-04-21T04:11:11;96788.49;;;12.52;37.34
47082;BME280;33066;49.296;14.470;2023-04-21T04:13:37;96788.53;;;12.72;38.19
47082;BME280;33066;49.296;14.470;2023-04-21T04:16:04;96792.29;;;12.67;38.62
47082;BME280;33066;49.296;14.470;2023-04-21T04:18:30;96794.23;;;12.65;38.93
47082;BME280;33066;49.296;14.470;2023-04-21T04:20:54;96792.58;;;12.67;39.43
47082;BME280;33066;49.296;14.470;2023-04-21T04:23:20;96793.36;;;12.51;39.11
47082;BME280;33066;49.296;14.470;2023-04-21T04:25:45;96795.54;;;12.50;38.71
47082;BME280;33066;49.296;14.470;2023-04-21T04:28:11;96797.65;;;12.74;38.06
47082;BME280;33066;49.296;14.470;2023-04-21T04:30:36;96798.50;;;12.52;38.20
47082;BME280;33066;49.296;14.470;2023-04-21T04:33:03;96800.56;;;12.46;37.84
47082;BME280;33066;49.296;14.470;2023-04-21T04:35:27;96800.82;;;12.21;38.10
47082;BME280;33066;49.296;14.470;2023-04-21T04:37:52;96802.91;;;12.75;38.18
47082;BME280;33066;49.296;14.470;2023-04-21T04:40:17;96804.94;;;12.45;38.23
47082;BME280;33066;49.296;14.470;2023-04-21T04:42:42;96803.57;;;12.55;38.47
47082;BME280;33066;49.296;14.470;2023-04-21T04:45:08;96803.95;;;12.62;38.89
47082;BME280;33066;49.296;14.470;2023-04-21T04:47:33;96808.31;;;12.72;38.86
47082;BME280;33066;49.296;14.470;2023-04-21T04:49:59;96809.91;;;12.85;38.53
47082;BME280;33066;49.296;14.470;2023-04-21T04:52:24;96813.55;;;12.71;38.33
47082;BME280;33066;49.296;14.470;2023-04-21T04:54:49;96812.14;;;12.47;37.96
47082;BME280;33066;49.296;14.470;2023-04-21T04:57:15;96814.00;;;12.95;38.73
47082;BME280;33066;49.296;14.470;2023-04-21T04:59:40;96816.17;;;13.04;38.23
47082;BME280;33066;49.296;14.470;2023-04-21T05:02:06;96818.45;;;13.11;37.84
47082;BME280;33066;49.296;14.470;2023-04-21T05:04:32;96817.00;;;13.10;37.48
47082;BME280;33066;49.296;14.470;2023-04-21T05:06:56;96814.57;;;12.84;37.74
47082;BME280;33066;49.296;14.470;2023-04-21T05:09:22;96816.50;;;12.71;37.87
47082;BME280;33066;49.296;14.470;2023-04-21T05:11:47;96819.36;;;12.76;37.78
47082;BME280;33066;49.296;14.470;2023-04-21T05:14:12;96820.04;;;13.07;37.93
47082;BME280;33066;49.296;14.470;2023-04-21T05:16:39;96823.92;;;12.92;37.70
47082;BME280;33066;49.296;14.470;2023-04-21T05:19:03;96828.48;;;13.02;37.79
47082;BME280;33066;49.296;14.470;2023-04-21T05:21:29;96830.69;;;13.08;37.92
47082;BME280;33066;49.296;14.470;2023-04-21T05:23:55;96833.46;;;13.24;37.84
47082;BME280;33066;49.296;14.470;2023-04-21T05:26:20;96835.95;;;13.37;37.84
47082;BME280;33066;49.296;14.470;2023-04-21T05:28:46;96831.22;;;13.27;37.76
47082;BME280;33066;49.296;14.470;2023-04-21T05:31:11;96833.33;;;13.59;37.76
47082;BME280;33066;49.296;14.470;2023-04-21T05:33:37;96836.61;;;13.68;37.72
47082;BME280;33066;49.296;14.470;2023-04-21T05:36:08;96837.37;;;13.82;37.69
47082;BME280;33066;49.296;14.470;2023-04-21T05:38:27;96837.15;;;13.67;37.64
47082;BME280;33066;49.296;14.470;2023-04-21T05:40:53;96834.61;;;13.67;37.57
47082;BME280;33066;49.296;14.470;2023-04-21T05:43:18;96838.85;;;13.88;37.32
47082;BME280;33066;49.296;14.470;2023-04-21T05:45:44;96836.07;;;13.88;37.58
47082;BME280;33066;49.296;14.470;2023-04-21T05:48:09;96832.49;;;13.92;37.53
47082;BME280;33066;49.296;14.470;2023-04-21T05:50:35;96829.07;;;14.24;37.53
47082;BME280;33066;49.296;14.470;2023-04-21T05:53:01;96823.43;;;14.26;37.49
47082;BME280;33066;49.296;14.470;2023-04-21T05:55:26;96826.57;;;14.20;37.41
47082;BME280;33066;49.296;14.470;2023-04-21T05:57:51;96825.34;;;14.59;37.30
47082;BME280;33066;49.296;14.470;2023-04-21T06:00:17;96825.53;;;14.74;37.26
47082;BME280;33066;49.296;14.470;2023-04-21T06:02:42;96823.72;;;14.33;37.61
47082;BME280;33066;49.296;14.470;2023-04-21T06:05:07;96823.79;;;14.92;38.32
47082;BME280;33066;49.296;14.470;2023-04-21T06:07:35;96822.28;;;14.78;37.94
47082;BME280;33066;49.296;14.470;2023-04-21T06:09:58;96825.98;;;14.84;38.69
47082;BME280;33066;49.296;14.470;2023-04-21T06:12:24;96825.81;;;15.03;38.04
47082;BME280;33066;49.296;14.470;2023-04-21T06:14:48;96824.42;;;15.18;38.07
47082;BME280;33066;49.296;14.470;2023-04-21T06:17:15;96825.88;;;15.19;38.31
47082;BME280;33066;49.296;14.470;2023-04-21T06:19:39;96825.53;;;15.40;37.63
47082;BME280;33066;49.296;14.470;2023-04-21T06:22:04;96819.75;;;15.07;37.42
47082;BME280;33066;49.296;14.470;2023-04-21T06:24:31;96819.49;;;15.22;37.38
47082;BME280;33066;49.296;14.470;2023-04-21T06:26:55;96818.95;;;15.78;37.28
47082;BME280;33066;49.296;14.470;2023-04-21T06:29:21;96820.15;;;15.31;37.25
47082;BME280;33066;49.296;14.470;2023-04-21T06:31:46;96815.69;;;15.89;37.35
47082;BME280;33066;49.296;14.470;2023-04-21T06:34:11;96819.56;;;15.20;37.71
47082;BME280;33066;49.296;14.470;2023-04-21T06:36:37;96816.76;;;15.17;37.75
47082;BME280;33066;49.296;14.470;2023-04-21T06:39:02;96814.81;;;15.40;38.01
47082;BME280;33066;49.296;14.470;2023-04-21T06:41:28;96815.28;;;14.93;38.27
47082;BME280;33066;49.296;14.470;2023-04-21T06:43:53;96814.40;;;14.96;38.47
47082;BME280;33066;49.296;14.470;2023-04-21T06:46:19;96817.13;;;15.02;38.66
47082;BME280;33066;49.296;14.470;2023-04-21T06:48:44;96815.18;;;14.83;38.59
47082;BME280;33066;49.296;14.470;2023-04-21T06:51:09;96817.76;;;15.07;38.93
47082;BME280;33066;49.296;14.470;2023-04-21T06:53:35;96815.39;;;15.01;38.39
47082;BME280;33066;49.296;14.470;2023-04-21T06:56:00;96812.00;;;15.53;38.69
47082;BME280;33066;49.296;14.470;2023-04-21T06:58:26;96807.14;;;15.58;38.55
47082;BME280;33066;49.296;14.470;2023-04-21T07:00:51;96806.61;;;15.28;38.72
47082;BME280;33066;49.296;14.470;2023-04-21T07:03:16;96806.24;;;15.74;37.99
47082;BME280;33066;49.296;14.470;2023-04-21T07:05:42;96809.04;;;15.72;38.13
47082;BME280;33066;49.296;14.470;2023-04-21T07:08:07;96811.93;;;15.83;38.03
47082;BME280;33066;49.296;14.470;2023-04-21T07:10:33;96809.12;;;15.88;37.90
47082;BME280;33066;49.296;14.470;2023-04-21T07:12:58;96810.60;;;16.00;37.81
47082;BME280;33066;49.296;14.470;2023-04-21T07:15:23;96809.04;;;16.12;37.73
47082;BME280;33066;49.296;14.470;2023-04-21T07:17:50;96809.90;;;16.15;37.57
47082;BME280;33066;49.296;14.470;2023-04-21T07:20:14;96809.53;;;15.99;37.45
47082;BME280;33066;49.296;14.470;2023-04-21T07:22:39;96807.56;;;16.09;37.39
47082;BME280;33066;49.296;14.470;2023-04-21T07:25:05;96803.92;;;16.44;37.51
47082;BME280;33066;49.296;14.470;2023-04-21T07:27:30;96803.10;;;16.32;37.46
47082;BME280;33066;49.296;14.470;2023-04-21T07:29:55;96800.50;;;16.40;37.40
47082;BME280;33066;49.296;14.470;2023-04-21T07:32:22;96801.75;;;16.29;37.28
47082;BME280;33066;49.296;14.470;2023-04-21T07:34:46;96802.28;;;16.53;37.35
47082;BME280;33066;49.296;14.470;2023-04-21T07:37:11;96805.14;;;16.40;37.19
47082;BME280;33066;49.296;14.470;2023-04-21T07:39:36;96805.31;;;16.35;36.92
47082;BME280;33066;49.296;14.470;2023-04-21T07:42:02;96807.53;;;16.67;37.20
47082;BME280;33066;49.296;14.470;2023-04-21T07:44:27;96810.23;;;16.49;37.36
47082;BME280;33066;49.296;14.470;2023-04-21T07:46:53;96806.39;;;16.61;36.53
47082;BME280;33066;49.296;14.470;2023-04-21T07:49:18;96802.13;;;16.94;36.68
47082;BME280;33066;49.296;14.470;2023-04-21T07:51:44;96800.58;;;16.50;36.78
47082;BME280;33066;49.296;14.470;2023-04-21T07:54:09;96804.02;;;16.77;36.36
47082;BME280;33066;49.296;14.470;2023-04-21T07:56:35;96805.02;;;16.51;36.34
47082;BME280;33066;49.296;14.470;2023-04-21T07:59:00;96804.87;;;16.57;36.48
47082;BME280;33066;49.296;14.470;2023-04-21T08:01:25;96808.43;;;16.55;36.52
47082;BME280;33066;49.296;14.470;2023-04-21T08:03:51;96809.42;;;16.79;36.55
47082;BME280;33066;49.296;14.470;2023-04-21T08:06:16;96810.68;;;16.75;36.93
47082;BME280;33066;49.296;14.470;2023-04-21T08:08:42;96807.97;;;17.20;36.17
47082;BME280;33066;49.296;14.470;2023-04-21T08:11:07;96808.57;;;16.94;36.26
47082;BME280;33066;49.296;14.470;2023-04-21T08:13:33;96806.65;;;16.93;36.40
47082;BME280;33066;49.296;14.470;2023-04-21T08:15:58;96804.93;;;17.01;36.13
47082;BME280;33066;49.296;14.470;2023-04-21T08:18:23;96801.95;;;17.05;35.95
47082;BME280;33066;49.296;14.470;2023-04-21T08:20:48;96812.69;;;16.95;36.08
47082;BME280;33066;49.296;14.470;2023-04-21T08:23:14;96809.79;;;17.19;36.17
47082;BME280;33066;49.296;14.470;2023-04-21T08:25:39;96812.08;;;17.19;35.76
47082;BME280;33066;49.296;14.470;2023-04-21T08:28:05;96809.00;;;17.61;35.57
47082;BME280;33066;49.296;14.470;2023-04-21T08:30:30;96809.15;;;17.25;35.25
47082;BME280;33066;49.296;14.470;2023-04-21T08:32:55;96805.85;;;17.33;35.51
47082;BME280;33066;49.296;14.470;2023-04-21T08:35:20;96809.13;;;17.89;34.98
47082;BME280;33066;49.296;14.470;2023-04-21T08:37:45;96808.81;;;17.26;35.20
47082;BME280;33066;49.296;14.470;2023-04-21T08:40:11;96804.46;;;17.54;34.93
47082;BME280;33066;49.296;14.470;2023-04-21T08:42:37;96801.27;;;17.68;34.41
47082;BME280;33066;49.296;14.470;2023-04-21T08:45:02;96797.19;;;18.01;34.79
47082;BME280;33066;49.296;14.470;2023-04-21T08:47:28;96798.92;;;17.81;34.29
47082;BME280;33066;49.296;14.470;2023-04-21T08:49:52;96795.75;;;17.88;34.56
47082;BME280;33066;49.296;14.470;2023-04-21T08:52:19;96802.49;;;16.99;34.97
47082;BME280;33066;49.296;14.470;2023-04-21T08:54:42;96800.36;;;17.11;35.39
47082;BME280;33066;49.296;14.470;2023-04-21T08:57:08;96792.46;;;17.75;34.66
47082;BME280;33066;49.296;14.470;2023-04-21T08:59:33;96799.24;;;17.87;34.32
47082;BME280;33066;49.296;14.470;2023-04-21T09:02:08;96789.48;;;18.21;34.25
47082;BME280;33066;49.296;14.470;2023-04-21T09:04:23;96787.46;;;18.22;33.66
47082;BME280;33066;49.296;14.470;2023-04-21T09:06:48;96784.18;;;18.32;33.23
47082;BME280;33066;49.296;14.470;2023-04-21T09:09:14;96787.91;;;18.22;33.34
47082;BME280;33066;49.296;14.470;2023-04-21T09:11:39;96783.27;;;18.43;33.17
47082;BME280;33066;49.296;14.470;2023-04-21T09:14:05;96787.86;;;18.59;32.76
47082;BME280;33066;49.296;14.470;2023-04-21T09:16:31;96782.53;;;18.43;32.70
47082;BME280;33066;49.296;14.470;2023-04-21T09:18:55;96784.59;;;18.44;32.78
47082;BME280;33066;49.296;14.470;2023-04-21T09:21:26;96774.57;;;18.65;33.05
47082;BME280;33066;49.296;14.470;2023-04-21T09:23:48;96784.03;;;18.70;32.53
47082;BME280;33066;49.296;14.470;2023-04-21T09:26:12;96784.45;;;18.71;32.28
47082;BME280;33066;49.296;14.470;2023-04-21T09:28:42;96788.18;;;18.41;31.89
47082;BME280;33066;49.296;14.470;2023-04-21T09:31:02;96774.00;;;18.16;31.75
47082;BME280;33066;49.296;14.470;2023-04-21T09:33:32;96781.72;;;18.15;31.77
47082;BME280;33066;49.296;14.470;2023-04-21T09:35:53;96779.46;;;18.66;31.68
47082;BME280;33066;49.296;14.470;2023-04-21T09:38:23;96776.48;;;18.60;31.17
47082;BME280;33066;49.296;14.470;2023-04-21T09:40:44;96779.67;;;18.91;31.75
47082;BME280;33066;49.296;14.470;2023-04-21T09:43:10;96775.26;;;18.95;31.38
47082;BME280;33066;49.296;14.470;2023-04-21T09:45:35;96782.02;;;18.75;31.02
47082;BME280;33066;49.296;14.470;2023-04-21T09:48:00;96774.16;;;19.01;31.14
47082;BME280;33066;49.296;14.470;2023-04-21T09:50:27;96781.37;;;19.22;30.49
47082;BME280;33066;49.296;14.470;2023-04-21T09:52:51;96777.30;;;19.25;29.85
47082;BME280;33066;49.296;14.470;2023-04-21T09:55:17;96770.43;;;19.43;29.89
47082;BME280;33066;49.296;14.470;2023-04-21T09:57:41;96775.24;;;19.63;29.96
47082;BME280;33066;49.296;14.470;2023-04-21T10:00:11;96774.48;;;19.71;30.09
47082;BME280;33066;49.296;14.470;2023-04-21T10:02:36;96769.17;;;19.95;29.72
47082;BME280;33066;49.296;14.470;2023-04-21T10:04:57;96766.40;;;19.31;29.58
47082;BME280;33066;49.296;14.470;2023-04-21T10:07:22;96767.28;;;19.95;29.59
47082;BME280;33066;49.296;14.470;2023-04-21T10:09:51;96766.46;;;19.98;29.70
47082;BME280;33066;49.296;14.470;2023-04-21T10:12:14;96766.76;;;19.81;29.92
47082;BME280;33066;49.296;14.470;2023-04-21T10:14:38;96766.11;;;19.58;29.44
47082;BME280;33066;49.296;14.470;2023-04-21T10:17:04;96768.82;;;19.61;29.55
47082;BME280;33066;49.296;14.470;2023-04-21T10:19:28;96766.52;;;19.94;29.46
47082;BME280;33066;49.296;14.470;2023-04-21T10:21:54;96757.85;;;19.91;29.17
47082;BME280;33066;49.296;14.470;2023-04-21T10:24:18;96766.01;;;20.31;29.34
47082;BME280;33066;49.296;14.470;2023-04-21T10:26:43;96755.95;;;20.17;28.58
47082;BME280;33066;49.296;14.470;2023-04-21T10:29:08;96755.22;;;20.62;29.15
47082;BME280;33066;49.296;14.470;2023-04-21T10:31:35;96749.91;;;21.06;29.02
47082;BME280;33066;49.296;14.470;2023-04-21T10:34:11;96742.37;;;21.11;27.40
47082;BME280;33066;49.296;14.470;2023-04-21T10:36:24;96751.19;;;21.57;27.26
47082;BME280;33066;49.296;14.470;2023-04-21T10:38:54;96751.37;;;21.65;26.70
47082;BME280;33066;49.296;14.470;2023-04-21T10:41:24;96750.60;;;22.41;26.12
47082;BME280;33066;49.296;14.470;2023-04-21T10:43:42;96748.64;;;22.28;25.86
47082;BME280;33066;49.296;14.470;2023-04-21T10:48:35;96753.64;;;22.01;25.70
47082;BME280;33066;49.296;14.470;2023-04-21T10:50:57;96751.09;;;21.64;25.90
47082;BME280;33066;49.296;14.470;2023-04-21T10:53:25;96743.83;;;22.02;25.32
47082;BME280;33066;49.296;14.470;2023-04-21T10:55:48;96749.31;;;21.76;25.25
47082;BME280;33066;49.296;14.470;2023-04-21T10:58:14;96738.60;;;22.09;25.50
47082;BME280;33066;49.296;14.470;2023-04-21T11:00:37;96742.15;;;22.43;25.71
47082;BME280;33066;49.296;14.470;2023-04-21T11:03:04;96741.35;;;22.73;24.88
47082;BME280;33066;49.296;14.470;2023-04-21T11:05:28;96740.29;;;23.51;24.93
47082;BME280;33066;49.296;14.470;2023-04-21T11:07:51;96741.12;;;23.59;24.57
47082;BME280;33066;49.296;14.470;2023-04-21T11:10:17;96736.40;;;23.10;24.54
47082;BME280;33066;49.296;14.470;2023-04-21T11:12:43;96739.06;;;23.25;24.15
47082;BME280;33066;49.296;14.470;2023-04-21T11:15:09;96739.58;;;23.25;24.49
47082;BME280;33066;49.296;14.470;2023-04-21T11:17:34;96737.42;;;23.61;24.22
47082;BME280;33066;49.296;14.470;2023-04-21T11:19:57;96733.43;;;23.93;24.22
47082;BME280;33066;49.296;14.470;2023-04-21T11:22:24;96731.73;;;24.75;24.08
47082;BME280;33066;49.296;14.470;2023-04-21T11:24:49;96727.18;;;24.92;23.44
47082;BME280;33066;49.296;14.470;2023-04-21T11:27:13;96724.11;;;24.99;23.01
47082;BME280;33066;49.296;14.470;2023-04-21T11:29:38;96725.08;;;24.78;22.40
47082;BME280;33066;49.296;14.470;2023-04-21T11:32:05;96722.56;;;25.29;21.91
47082;BME280;33066;49.296;14.470;2023-04-21T11:34:30;96724.19;;;25.09;22.15
47082;BME280;33066;49.296;14.470;2023-04-21T11:36:56;96722.98;;;25.36;22.48
47082;BME280;33066;49.296;14.470;2023-04-21T11:39:21;96724.47;;;25.85;22.25
47082;BME280;33066;49.296;14.470;2023-04-21T11:41:48;96721.53;;;25.74;22.05
47082;BME280;33066;49.296;14.470;2023-04-21T11:44:16;96723.28;;;25.50;22.25
47082;BME280;33066;49.296;14.470;2023-04-21T11:46:44;96725.03;;;25.43;21.58
47082;BME280;33066;49.296;14.470;2023-04-21T11:49:05;96724.11;;;25.72;21.88
47082;BME280;33066;49.296;14.470;2023-04-21T11:51:33;96720.41;;;25.37;22.01
47082;BME280;33066;49.296;14.470;2023-04-21T11:53:58;96724.54;;;25.41;22.54
47082;BME280;33066;49.296;14.470;2023-04-21T11:56:20;96722.47;;;25.84;22.28
47082;BME280;33066;49.296;14.470;2023-04-21T11:58:46;96719.87;;;25.02;21.83
47082;BME280;33066;49.296;14.470;2023-04-21T12:01:15;96722.68;;;25.33;22.12
47082;BME280;33066;49.296;14.470;2023-04-21T12:03:37;96713.17;;;24.67;22.10
47082;BME280;33066;49.296;14.470;2023-04-21T12:06:04;96723.93;;;24.66;22.35
47082;BME280;33066;49.296;14.470;2023-04-21T12:08:29;96723.58;;;24.06;22.81
47082;BME280;33066;49.296;14.470;2023-04-21T12:10:54;96722.43;;;24.88;22.19
47082;BME280;33066;49.296;14.470;2023-04-21T12:13:21;96716.39;;;25.33;21.55
47082;BME280;33066;49.296;14.470;2023-04-21T12:15:45;96711.56;;;25.07;21.85
47082;BME280;33066;49.296;14.470;2023-04-21T12:18:12;96724.11;;;25.46;21.88
47082;BME280;33066;49.296;14.470;2023-04-21T12:20:37;96722.71;;;24.71;22.02
47082;BME280;33066;49.296;14.470;2023-04-21T12:23:02;96722.50;;;24.52;22.40
47082;BME280;33066;49.296;14.470;2023-04-21T12:25:28;96715.93;;;24.67;22.38
47082;BME280;33066;49.296;14.470;2023-04-21T12:27:57;96719.34;;;24.71;22.32
47082;BME280;33066;49.296;14.470;2023-04-21T12:30:19;96717.75;;;25.57;21.70
47082;BME280;33066;49.296;14.470;2023-04-21T12:32:44;96710.75;;;24.97;21.82
47082;BME280;33066;49.296;14.470;2023-04-21T12:35:10;96719.00;;;24.48;22.54
47082;BME280;33066;49.296;14.470;2023-04-21T12:37:35;96719.88;;;24.68;21.92
47082;BME280;33066;49.296;14.470;2023-04-21T12:40:02;96714.27;;;25.25;21.47
47082;BME280;33066;49.296;14.470;2023-04-21T12:42:25;96705.74;;;26.03;20.66
47082;BME280;33066;49.296;14.470;2023-04-21T12:44:51;96701.90;;;26.76;20.34
47082;BME280;33066;49.296;14.470;2023-04-21T12:47:16;96706.00;;;26.00;20.62